createdAt,value
2023-05-03T00:01:44.350Z,16.06
2023-05-03T00:04:11.722Z,16.31
2023-05-03T00:06:38.747Z,16.59
2023-05-03T00:09:05.758Z,16.13
2023-05-03T00:11:33.913Z,15.64
2023-05-03T00:14:01.216Z,15.72
2023-05-03T00:16:28.199Z,15.98
2023-05-03T00:18:55.356Z,14.82
2023-05-03T00:21:22.325Z,15.29
2023-05-03T00:23:49.231Z,15.18
2023-05-03T00:26:16.260Z,15.22
2023-05-03T00:28:43.182Z,15.11
2023-05-03T00:31:11.245Z,15.18
2023-05-03T00:33:39.702Z,15.34
2023-05-03T00:36:11.697Z,14.86
2023-05-03T00:38:39.346Z,14.86
2023-05-03T00:41:07.112Z,14.89
2023-05-03T00:43:35.597Z,14.49
2023-05-03T00:46:15.921Z,15.01
2023-05-03T00:48:46.946Z,14.69
2023-05-03T00:51:15.386Z,15.15
2023-05-03T00:53:43.604Z,14.71
2023-05-03T00:56:12.197Z,15.06
2023-05-03T00:58:40.688Z,14.72
2023-05-03T01:01:08.374Z,14.81
2023-05-03T01:03:38.098Z,14.93
2023-05-03T01:06:08.109Z,14.97
2023-05-03T01:08:58.904Z,15.31
2023-05-03T01:11:44.827Z,15.27
2023-05-03T01:14:39.116Z,15.08
2023-05-03T01:17:12.173Z,15.18
2023-05-03T01:19:51.702Z,15.33
2023-05-03T01:22:36.484Z,15.25
2023-05-03T01:25:09.456Z,15.41
2023-05-03T01:27:37.584Z,15.38
2023-05-03T01:30:06.226Z,15.25
2023-05-03T01:32:43.926Z,15.08
2023-05-03T01:35:40.834Z,15.00
2023-05-03T01:38:09.032Z,15.08
2023-05-03T01:40:50.049Z,14.76
2023-05-03T01:43:18.582Z,15.19
2023-05-03T01:45:46.203Z,14.97
2023-05-03T01:48:17.252Z,15.03
2023-05-03T01:50:44.852Z,14.78
2023-05-03T01:53:12.160Z,14.81
2023-05-03T01:55:39.148Z,15.08
2023-05-03T01:58:06.522Z,14.49
2023-05-03T02:00:33.781Z,14.73
2023-05-03T02:03:00.833Z,15.25
2023-05-03T02:05:27.833Z,14.68
2023-05-03T02:07:54.827Z,14.98
2023-05-03T02:10:21.795Z,14.57
2023-05-03T02:12:48.850Z,14.79
2023-05-03T02:15:15.830Z,15.24
2023-05-03T02:17:43.461Z,15.46
2023-05-03T02:20:10.722Z,15.14
2023-05-03T02:22:37.624Z,15.10
2023-05-03T02:25:05.411Z,14.85
2023-05-03T02:27:32.446Z,15.00
2023-05-03T02:29:59.412Z,15.25
2023-05-03T02:32:26.546Z,14.81
2023-05-03T02:34:54.885Z,14.50
2023-05-03T02:37:21.798Z,14.43
2023-05-03T02:39:48.724Z,14.40
2023-05-03T02:42:16.445Z,14.93
2023-05-03T02:44:43.354Z,15.14
2023-05-03T02:47:10.762Z,15.28
2023-05-03T02:49:37.756Z,15.57
2023-05-03T02:52:04.736Z,14.46
2023-05-03T02:54:31.660Z,14.90
2023-05-03T02:56:58.758Z,15.19
2023-05-03T02:59:25.643Z,15.04
2023-05-03T03:01:52.569Z,15.29
2023-05-03T03:04:19.615Z,14.70
2023-05-03T03:06:46.992Z,14.45
2023-05-03T03:09:13.936Z,15.02
2023-05-03T03:11:41.539Z,14.95
2023-05-03T03:14:08.456Z,15.27
2023-05-03T03:16:35.585Z,14.44
2023-05-03T03:19:02.563Z,14.62
2023-05-03T03:21:29.858Z,14.75
2023-05-03T03:23:57.138Z,14.77
2023-05-03T03:26:24.642Z,15.16
2023-05-03T03:28:52.149Z,15.07
2023-05-03T03:31:19.057Z,15.20
2023-05-03T03:33:46.498Z,15.22
2023-05-03T03:36:13.590Z,15.05
2023-05-03T03:38:41.458Z,14.91
2023-05-03T03:41:08.784Z,15.27
2023-05-03T03:43:35.685Z,15.10
2023-05-03T03:46:02.606Z,14.53
2023-05-03T03:48:29.546Z,14.54
2023-05-03T03:50:56.615Z,13.68
2023-05-03T03:53:23.814Z,14.21
2023-05-03T03:55:50.718Z,13.84
2023-05-03T03:58:17.646Z,13.82
2023-05-03T04:00:44.712Z,14.35
2023-05-03T04:03:11.977Z,14.12
2023-05-03T04:05:39.018Z,13.63
2023-05-03T04:08:06.414Z,13.19
2023-05-03T04:10:33.377Z,13.16
2023-05-03T04:13:00.415Z,13.37
2023-05-03T04:15:27.622Z,13.05
2023-05-03T04:17:54.651Z,13.13
2023-05-03T04:20:21.753Z,13.58
2023-05-03T04:22:48.687Z,13.19
2023-05-03T04:25:17.448Z,13.48
2023-05-03T04:27:45.557Z,13.14
2023-05-03T04:30:14.258Z,13.45
2023-05-03T04:32:42.894Z,12.98
2023-05-03T04:35:12.802Z,13.14
2023-05-03T04:37:42.167Z,12.92
2023-05-03T04:40:12.867Z,12.99
2023-05-03T04:42:39.787Z,13.30
2023-05-03T04:45:09.923Z,13.36
2023-05-03T04:47:37.333Z,13.43
2023-05-03T04:50:04.847Z,13.53
2023-05-03T04:52:32.204Z,13.21
2023-05-03T04:54:59.259Z,13.54
2023-05-03T04:57:26.314Z,13.42
2023-05-03T04:59:54.384Z,13.84
2023-05-03T05:02:21.930Z,13.32
2023-05-03T05:04:48.964Z,13.54
2023-05-03T05:07:16.363Z,13.40
2023-05-03T05:09:43.286Z,13.50
2023-05-03T05:12:10.295Z,13.31
2023-05-03T05:14:37.222Z,13.13
2023-05-03T05:17:04.243Z,13.42
2023-05-03T05:19:31.312Z,13.53
2023-05-03T05:21:58.249Z,13.61
2023-05-03T05:24:25.153Z,13.52
2023-05-03T05:26:52.279Z,13.49
2023-05-03T05:29:19.319Z,13.49
2023-05-03T05:31:46.462Z,13.83
2023-05-03T05:34:13.535Z,13.86
2023-05-03T05:36:40.496Z,13.83
2023-05-03T05:39:07.612Z,13.61
2023-05-03T05:41:34.621Z,13.93
2023-05-03T05:44:01.762Z,14.22
2023-05-03T05:46:28.759Z,13.99
2023-05-03T05:48:56.449Z,14.14
2023-05-03T05:51:27.224Z,14.05
2023-05-03T05:53:55.361Z,13.89
2023-05-03T05:56:22.375Z,14.16
2023-05-03T05:58:49.345Z,14.11
2023-05-03T06:01:16.633Z,14.12
2023-05-03T06:03:43.556Z,13.83
2023-05-03T06:06:12.094Z,13.62
2023-05-03T06:08:43.066Z,14.01
2023-05-03T06:11:10.380Z,13.59
2023-05-03T06:13:38.884Z,13.75
2023-05-03T06:16:06.353Z,14.09
2023-05-03T06:18:33.330Z,14.20
2023-05-03T06:21:00.327Z,13.88
2023-05-03T06:23:28.404Z,14.29
2023-05-03T06:25:55.463Z,13.57
2023-05-03T06:28:22.428Z,13.46
2023-05-03T06:30:50.501Z,13.54
2023-05-03T06:33:17.708Z,14.39
2023-05-03T06:35:47.343Z,14.08
2023-05-03T06:38:14.525Z,14.40
2023-05-03T06:40:44.252Z,14.14
2023-05-03T06:43:11.350Z,13.93
2023-05-03T06:45:40.139Z,14.30
2023-05-03T06:48:07.875Z,14.30
2023-05-03T06:50:35.135Z,15.10
2023-05-03T06:53:02.597Z,14.93
2023-05-03T06:55:29.640Z,14.43
2023-05-03T06:58:12.316Z,14.22
2023-05-03T07:00:40.281Z,14.40
2023-05-03T07:03:08.049Z,13.55
2023-05-03T07:05:35.213Z,13.94
2023-05-03T07:08:02.360Z,14.53
2023-05-03T07:10:31.629Z,14.47
2023-05-03T07:12:58.940Z,14.48
2023-05-03T07:15:26.182Z,13.52
2023-05-03T07:17:53.303Z,13.88
2023-05-03T07:20:21.895Z,13.98
2023-05-03T07:22:48.887Z,13.78
2023-05-03T07:25:18.054Z,13.36
2023-05-03T07:27:45.352Z,14.13
2023-05-03T07:30:12.653Z,14.56
2023-05-03T07:32:44.560Z,14.08
2023-05-03T07:35:11.841Z,14.35
2023-05-03T07:37:38.958Z,14.49
2023-05-03T07:40:07.599Z,14.16
2023-05-03T07:42:36.198Z,14.32
2023-05-03T07:45:03.342Z,14.25
2023-05-03T07:47:30.935Z,14.28
2023-05-03T07:49:58.012Z,14.05
2023-05-03T07:52:25.030Z,14.76
2023-05-03T07:54:53.549Z,14.64
2023-05-03T07:57:20.502Z,14.94
2023-05-03T07:59:47.862Z,14.92
2023-05-03T08:02:14.992Z,15.08
2023-05-03T08:04:42.358Z,14.74
2023-05-03T08:07:09.877Z,14.50
2023-05-03T08:09:36.956Z,15.24
2023-05-03T08:12:04.142Z,15.04
2023-05-03T08:14:31.191Z,14.39
2023-05-03T08:16:58.216Z,15.01
2023-05-03T08:19:26.684Z,15.24
2023-05-03T08:21:55.370Z,15.11
2023-05-03T08:24:26.848Z,14.67
2023-05-03T08:26:54.129Z,14.82
2023-05-03T08:29:21.438Z,14.66
2023-05-03T08:31:50.891Z,15.05
2023-05-03T08:34:18.004Z,15.50
2023-05-03T08:36:45.198Z,15.09
2023-05-03T08:39:12.461Z,14.80
2023-05-03T08:41:40.061Z,14.72
2023-05-03T08:44:08.767Z,14.94
2023-05-03T08:46:37.560Z,14.72
2023-05-03T08:49:09.382Z,15.01
2023-05-03T08:51:41.325Z,14.50
2023-05-03T08:54:08.915Z,14.35
2023-05-03T08:56:43.592Z,14.67
2023-05-03T08:59:14.323Z,14.27
2023-05-03T09:01:42.826Z,14.61
2023-05-03T09:04:11.528Z,14.44
2023-05-03T09:06:39.050Z,14.49
2023-05-03T09:09:08.671Z,14.85
2023-05-03T09:11:38.172Z,14.94
2023-05-03T09:14:14.179Z,14.75
2023-05-03T09:16:43.778Z,15.26
2023-05-03T09:19:12.801Z,15.20
2023-05-03T09:21:44.547Z,15.15
2023-05-03T09:24:19.365Z,15.35
2023-05-03T09:26:48.142Z,15.22
2023-05-03T09:29:48.692Z,14.89
2023-05-03T09:32:17.403Z,14.61
2023-05-03T09:34:45.630Z,14.99
2023-05-03T09:37:16.740Z,15.25
2023-05-03T09:39:46.766Z,15.51
2023-05-03T09:42:18.442Z,15.18
2023-05-03T09:44:54.347Z,15.20
2023-05-03T09:47:26.036Z,15.33
2023-05-03T09:49:53.150Z,15.47
2023-05-03T09:52:22.638Z,15.91
2023-05-03T09:54:51.822Z,15.52
2023-05-03T09:57:19.436Z,15.71
2023-05-03T09:59:47.237Z,15.84
2023-05-03T10:02:15.345Z,15.77
2023-05-03T10:04:47.945Z,15.83
2023-05-03T10:07:18.649Z,15.13
2023-05-03T10:09:49.008Z,15.60
2023-05-03T10:12:19.289Z,15.58
2023-05-03T10:14:50.035Z,15.41
2023-05-03T10:17:35.361Z,15.80
2023-05-03T10:20:41.730Z,15.46
2023-05-03T10:23:11.225Z,15.81
2023-05-03T10:25:40.471Z,15.50
2023-05-03T10:28:09.789Z,15.63
2023-05-03T10:30:40.859Z,15.97
2023-05-03T10:33:13.931Z,16.09
2023-05-03T10:35:43.241Z,15.83
2023-05-03T10:38:18.013Z,15.90
2023-05-03T10:40:45.175Z,15.69
2023-05-03T10:43:33.614Z,15.86
2023-05-03T10:46:29.566Z,15.63
2023-05-03T10:49:16.395Z,15.61
2023-05-03T10:51:45.754Z,16.07
2023-05-03T10:54:13.001Z,15.87
2023-05-03T10:57:01.803Z,15.84
2023-05-03T10:59:48.456Z,15.83
2023-05-03T11:02:21.706Z,16.19
2023-05-03T11:04:52.560Z,16.11
2023-05-03T11:07:24.980Z,15.94
2023-05-03T11:09:52.463Z,16.23
2023-05-03T11:12:20.024Z,16.16
2023-05-03T11:14:47.013Z,15.93
2023-05-03T11:17:14.287Z,16.33
2023-05-03T11:19:44.006Z,16.26
2023-05-03T11:22:12.746Z,16.60
2023-05-03T11:24:39.719Z,16.42
2023-05-03T11:27:08.715Z,16.42
2023-05-03T11:29:36.426Z,16.74
2023-05-03T11:32:03.602Z,16.94
2023-05-03T11:34:31.482Z,16.65
2023-05-03T11:36:59.994Z,16.19
2023-05-03T11:39:28.613Z,16.55
2023-05-03T11:42:05.244Z,16.09
2023-05-03T11:44:32.460Z,16.41
2023-05-03T11:46:59.663Z,16.65
2023-05-03T11:49:26.899Z,16.23
2023-05-03T11:51:55.171Z,16.07
2023-05-03T11:54:26.960Z,16.75
2023-05-03T11:56:58.580Z,16.34
2023-05-03T11:59:37.346Z,16.78
2023-05-03T12:02:06.055Z,16.39
2023-05-03T12:04:33.603Z,16.87
2023-05-03T12:07:02.835Z,16.69
2023-05-03T12:09:31.586Z,16.45
2023-05-03T12:12:01.643Z,16.72
2023-05-03T12:14:30.148Z,16.52
2023-05-03T12:17:00.424Z,16.57
2023-05-03T12:19:32.918Z,16.70
2023-05-03T12:24:33.368Z,16.71
2023-05-03T12:27:02.795Z,16.98
2023-05-03T12:29:34.809Z,17.32
2023-05-03T12:32:04.310Z,17.37
2023-05-03T12:34:35.705Z,17.68
2023-05-03T12:37:05.770Z,17.26
2023-05-03T12:39:34.195Z,17.41
2023-05-03T12:42:07.998Z,17.79
2023-05-03T12:44:36.082Z,17.64
2023-05-03T12:47:04.619Z,17.36
2023-05-03T12:49:32.285Z,17.56
2023-05-03T12:52:34.757Z,17.98
2023-05-03T12:54:49.185Z,18.03
2023-05-03T12:57:22.898Z,17.98
2023-05-03T13:00:01.626Z,17.35
2023-05-03T13:05:01.065Z,17.52
2023-05-03T13:07:31.612Z,17.48
2023-05-03T13:12:32.807Z,17.21
2023-05-03T13:15:03.002Z,17.25
2023-05-03T13:17:32.558Z,17.47
2023-05-03T13:20:03.783Z,17.23
2023-05-03T13:23:24.084Z,17.66
2023-05-03T13:25:54.487Z,17.72
2023-05-03T13:28:24.591Z,17.99
2023-05-03T13:30:51.541Z,17.29
2023-05-03T13:33:18.648Z,17.43
2023-05-03T13:35:48.147Z,17.78
2023-05-03T13:38:16.101Z,17.55
2023-05-03T13:40:43.187Z,17.62
2023-05-03T13:43:10.391Z,18.02
2023-05-03T13:45:37.402Z,17.76
2023-05-03T13:48:18.798Z,17.82
2023-05-03T13:50:46.575Z,17.85
2023-05-03T13:53:13.561Z,17.66
2023-05-03T13:55:41.077Z,17.49
2023-05-03T13:58:08.660Z,17.37
2023-05-03T14:00:36.923Z,17.45
2023-05-03T14:03:04.645Z,17.57
2023-05-03T14:05:31.780Z,17.29
2023-05-03T14:07:58.907Z,17.39
2023-05-03T14:10:26.477Z,17.76
2023-05-03T14:12:53.761Z,17.45
2023-05-03T14:15:20.986Z,17.97
2023-05-03T14:17:48.277Z,18.01
2023-05-03T14:20:17.998Z,17.85
2023-05-03T14:22:45.695Z,17.69
2023-05-03T14:25:13.116Z,17.58
2023-05-03T14:27:40.524Z,17.45
2023-05-03T14:30:09.827Z,17.79
2023-05-03T14:32:37.102Z,18.04
2023-05-03T14:35:04.636Z,18.15
2023-05-03T14:37:31.861Z,17.82
2023-05-03T14:40:04.485Z,17.79
2023-05-03T14:42:33.360Z,18.32
2023-05-03T14:45:13.524Z,18.10
2023-05-03T14:47:41.868Z,17.40
2023-05-03T14:50:09.737Z,17.42
2023-05-03T14:52:38.138Z,17.87
2023-05-03T14:55:08.715Z,17.50
2023-05-03T14:57:36.574Z,17.34
2023-05-03T15:00:06.550Z,17.36
2023-05-03T15:02:34.000Z,17.56
2023-05-03T15:05:01.544Z,17.66
2023-05-03T15:07:28.748Z,17.69
2023-05-03T15:09:55.827Z,16.95
2023-05-03T15:12:22.795Z,16.78
2023-05-03T15:14:49.757Z,16.54
2023-05-03T15:17:16.898Z,17.18
2023-05-03T15:19:43.929Z,17.24
2023-05-03T15:22:10.880Z,16.85
2023-05-03T15:24:37.881Z,16.81
2023-05-03T15:27:04.970Z,16.95
2023-05-03T15:29:31.958Z,16.84
2023-05-03T15:31:58.948Z,16.98
2023-05-03T15:34:26.405Z,17.00
2023-05-03T15:36:53.354Z,17.05
2023-05-03T15:39:20.436Z,17.08
2023-05-03T15:41:47.460Z,17.29
2023-05-03T15:44:15.240Z,17.01
2023-05-03T15:46:43.033Z,16.84
2023-05-03T15:49:10.597Z,17.19
2023-05-03T15:51:37.825Z,17.47
2023-05-03T15:54:05.027Z,17.16
2023-05-03T15:56:32.661Z,16.77
2023-05-03T15:58:59.882Z,16.85
2023-05-03T16:01:27.190Z,16.57
2023-05-03T16:03:54.284Z,16.51
2023-05-03T16:06:21.309Z,16.30
2023-05-03T16:08:48.250Z,16.33
2023-05-03T16:11:15.313Z,16.36
2023-05-03T16:13:42.405Z,16.48
2023-05-03T16:16:09.429Z,16.34
2023-05-03T16:18:36.550Z,16.97
2023-05-03T16:21:03.775Z,16.60
2023-05-03T16:23:30.739Z,16.39
2023-05-03T16:25:57.758Z,16.60
2023-05-03T16:28:24.797Z,16.54
2023-05-03T16:30:52.135Z,16.18
2023-05-03T16:33:19.753Z,16.05
2023-05-03T16:35:46.694Z,15.85
2023-05-03T16:38:13.735Z,15.74
2023-05-03T16:40:40.909Z,16.42
2023-05-03T16:43:07.966Z,16.10
2023-05-03T16:45:35.081Z,15.65
2023-05-03T16:48:04.502Z,15.46
2023-05-03T16:50:33.187Z,16.01
2023-05-03T16:53:00.205Z,16.32
2023-05-03T16:55:27.215Z,16.27
2023-05-03T16:57:54.204Z,16.16
2023-05-03T17:00:21.998Z,16.39
2023-05-03T17:02:49.178Z,15.99
2023-05-03T17:05:16.316Z,16.45
2023-05-03T17:07:43.249Z,16.12
2023-05-03T17:10:10.718Z,16.10
2023-05-03T17:12:37.862Z,15.61
2023-05-03T17:15:05.333Z,15.79
2023-05-03T17:17:32.921Z,16.16
2023-05-03T17:19:59.977Z,16.23
2023-05-03T17:22:26.949Z,15.48
2023-05-03T17:24:55.460Z,15.90
2023-05-03T17:27:24.408Z,15.59
2023-05-03T17:29:51.680Z,15.65
2023-05-03T17:32:18.590Z,15.82
2023-05-03T17:34:45.550Z,15.67
2023-05-03T17:37:12.469Z,15.61
2023-05-03T17:39:39.757Z,15.19
2023-05-03T17:42:06.697Z,15.12
2023-05-03T17:44:33.808Z,14.91
2023-05-03T17:47:01.124Z,15.11
2023-05-03T17:49:28.128Z,15.47
2023-05-03T17:51:55.127Z,15.15
2023-05-03T17:54:22.024Z,15.45
2023-05-03T17:56:48.997Z,15.28
2023-05-03T17:59:18.962Z,15.43
2023-05-03T18:01:48.120Z,16.00
2023-05-03T18:04:15.582Z,16.08
2023-05-03T18:06:42.534Z,16.68
2023-05-03T18:09:09.499Z,16.21
2023-05-03T18:11:36.486Z,15.86
2023-05-03T18:14:04.090Z,16.06
2023-05-03T18:16:31.735Z,16.68
2023-05-03T18:18:58.773Z,16.58
2023-05-03T18:21:27.912Z,16.91
2023-05-03T18:23:54.906Z,17.03
2023-05-03T18:26:21.858Z,16.02
2023-05-03T18:28:49.437Z,16.27
2023-05-03T18:31:17.456Z,16.16
2023-05-03T18:33:44.426Z,16.83
2023-05-03T18:36:12.220Z,16.60
2023-05-03T18:38:39.641Z,16.97
2023-05-03T18:41:14.561Z,16.91
2023-05-03T18:43:46.544Z,17.16
2023-05-03T18:46:20.156Z,17.24
2023-05-03T18:48:48.064Z,17.19
2023-05-03T18:51:14.992Z,17.29
2023-05-03T18:53:41.925Z,17.42
2023-05-03T18:56:08.920Z,17.56
2023-05-03T18:58:36.006Z,17.51
2023-05-03T19:01:04.965Z,17.47
2023-05-03T19:03:32.061Z,17.44
2023-05-03T19:06:09.334Z,17.37
2023-05-03T19:08:36.220Z,17.22
2023-05-03T19:11:13.744Z,17.22
2023-05-03T19:13:50.260Z,17.11
2023-05-03T19:16:17.615Z,17.29
2023-05-03T19:18:45.663Z,17.38
2023-05-03T19:21:12.768Z,17.12
2023-05-03T19:23:39.717Z,17.24
2023-05-03T19:26:06.714Z,17.37
2023-05-03T19:28:33.766Z,17.15
2023-05-03T19:31:07.201Z,17.16
2023-05-03T19:33:34.229Z,17.23
2023-05-03T19:36:06.961Z,17.02
2023-05-03T19:38:36.641Z,17.01
2023-05-03T19:41:09.782Z,15.88
2023-05-03T19:43:36.766Z,15.51
2023-05-03T19:46:03.754Z,15.09
2023-05-03T19:48:31.129Z,15.80
2023-05-03T19:50:59.068Z,15.30
2023-05-03T19:53:26.827Z,15.39
2023-05-03T19:56:01.381Z,14.73
2023-05-03T19:58:28.775Z,14.94
2023-05-03T20:00:58.676Z,14.86
2023-05-03T20:03:25.849Z,15.08
2023-05-03T20:05:52.928Z,15.02
2023-05-03T20:08:20.013Z,14.91
2023-05-03T20:10:47.008Z,15.19
2023-05-03T20:13:14.187Z,15.92
2023-05-03T20:15:41.802Z,16.08
2023-05-03T20:18:09.033Z,16.22
2023-05-03T20:20:36.889Z,16.11
2023-05-03T20:23:03.790Z,16.36
2023-05-03T20:25:30.726Z,16.55
2023-05-03T20:27:58.075Z,16.20
2023-05-03T20:30:25.488Z,16.44
2023-05-03T20:32:52.594Z,16.56
2023-05-03T20:35:19.722Z,16.53
2023-05-03T20:37:46.755Z,16.60
2023-05-03T20:40:13.664Z,16.76
2023-05-03T20:42:40.666Z,16.77
2023-05-03T20:45:08.107Z,16.75
2023-05-03T20:47:35.137Z,16.63
2023-05-03T20:50:02.401Z,16.67
2023-05-03T20:52:29.463Z,16.65
2023-05-03T20:54:56.385Z,16.59
2023-05-03T20:57:23.328Z,16.42
2023-05-03T20:59:50.246Z,16.54
2023-05-03T21:02:17.235Z,16.67
2023-05-03T21:04:44.227Z,16.20
2023-05-03T21:07:11.249Z,16.51
2023-05-03T21:09:38.836Z,16.37
2023-05-03T21:12:06.058Z,16.47
2023-05-03T21:14:32.989Z,16.26
2023-05-03T21:17:01.624Z,16.22
2023-05-03T21:19:28.616Z,16.10
2023-05-03T21:21:55.612Z,16.30
2023-05-03T21:24:25.803Z,16.20
2023-05-03T21:26:52.725Z,16.24
2023-05-03T21:29:19.715Z,16.23
2023-05-03T21:31:46.699Z,16.04
2023-05-03T21:34:13.648Z,16.13
2023-05-03T21:36:40.576Z,16.15
2023-05-03T21:39:07.711Z,15.96
2023-05-03T21:41:35.040Z,15.88
2023-05-03T21:44:02.469Z,15.54
2023-05-03T21:46:29.468Z,15.77
2023-05-03T21:48:56.442Z,15.52
2023-05-03T21:51:23.505Z,15.51
2023-05-03T21:53:50.603Z,15.32
2023-05-03T21:56:17.619Z,15.32
2023-05-03T21:58:45.778Z,15.41
2023-05-03T22:01:15.455Z,15.39
2023-05-03T22:03:42.313Z,14.42
2023-05-03T22:06:09.832Z,15.04
2023-05-03T22:08:37.112Z,14.43
2023-05-03T22:11:07.416Z,13.94
2023-05-03T22:13:43.189Z,13.95
2023-05-03T22:16:18.502Z,13.86
2023-05-03T22:18:45.539Z,14.27
2023-05-03T22:21:12.569Z,14.57
2023-05-03T22:23:39.454Z,14.51
2023-05-03T22:26:06.501Z,14.29
2023-05-03T22:28:33.641Z,14.27
2023-05-03T22:31:00.593Z,14.76
2023-05-03T22:33:27.556Z,14.21
2023-05-03T22:35:54.498Z,14.80
2023-05-03T22:38:22.028Z,14.68
2023-05-03T22:40:48.994Z,15.15
2023-05-03T22:43:16.162Z,14.85
2023-05-03T22:45:43.531Z,14.85
2023-05-03T22:48:10.648Z,15.03
2023-05-03T22:50:37.685Z,14.94
2023-05-03T22:53:04.691Z,14.84
2023-05-03T22:55:31.584Z,14.77
2023-05-03T22:57:58.534Z,14.87
2023-05-03T23:00:25.621Z,14.04
2023-05-03T23:02:52.745Z,14.79
2023-05-03T23:05:19.854Z,14.84
2023-05-03T23:07:46.811Z,14.74
2023-05-03T23:10:14.048Z,14.49
2023-05-03T23:12:41.296Z,14.62
2023-05-03T23:15:08.566Z,14.27
2023-05-03T23:17:35.528Z,14.57
2023-05-03T23:20:02.879Z,14.49
2023-05-03T23:22:30.188Z,14.82
2023-05-03T23:24:57.089Z,14.61
2023-05-03T23:27:24.066Z,14.81
2023-05-03T23:29:52.177Z,14.31
2023-05-03T23:32:19.782Z,14.39
2023-05-03T23:34:46.975Z,13.92
2023-05-03T23:37:13.936Z,13.85
2023-05-03T23:39:45.128Z,13.84
2023-05-03T23:42:13.069Z,13.78
2023-05-03T23:44:53.825Z,13.86
2023-05-03T23:47:22.538Z,13.84
2023-05-03T23:49:49.751Z,14.15
2023-05-03T23:52:20.619Z,14.72
2023-05-03T23:54:47.691Z,14.85
2023-05-03T23:57:14.599Z,14.64
2023-05-03T23:59:41.503Z,13.83
